Euro Snow — VQGH9 — position and weather

sailwx.info

Track history (hours):
 
Tides and Currents Weather Stations Pressure Air Temp Water Temp Dewpoint Dewpoint Depression Visibility Wind Speed Wind Dir Waves Ship Positions

Euro Snow

Last reported at 2017-Feb-21 15:33 UTC. Time now 2017-Feb-21 19:04 UTC.
Position N 51°31' E 002°18'.

Length 133 m; draft 6.7 m.

Type: Ship (hazmat cat A). MMSI: 235613000.

Date/timePositionNaut miles runAvg speedWind from/ knotsBaromVisibWave heightAir tempDewpointWater temp
2017-Feb-21 15:33N 51°31' E 002°18'1616.3
2017-Feb-21 14:34N 51°17' E 002°06'1616.1
2017-Feb-21 13:34N 51°06' E 001°47'1616.2
2017-Feb-21 12:34N 50°54' E 001°30'3415.7
2017-Feb-21 10:22N 50°30' E 000°51'1416.7
2017-Feb-21 09:32N 50°26' E 000°30'1616.6
2017-Feb-21 08:34N 50°21' E 000°06'5817.3
2017-Feb-21 05:13N 50°06' W 001°21'1218.3
2017-Feb-21 04:33N 50°01' W 001°38'4518.5
2017-Feb-21 02:08N 49°50' W 002°46'1517.9
2017-Feb-21 01:16N 49°43' W 003°07'1317.7
2017-Feb-21 00:34N 49°37' W 003°24'1817.5
2017-Feb-20 23:34N 49°28' W 003°47'7217.3
2017-Feb-20 19:23N 48°51' W 005°22'7014.5
2017-Feb-20 14:33N 47°41' W 005°15'  
2017-Feb-15 12:30N 46°36' W 004°47'2612.4
2017-Feb-15 10:23N 47°01' W 005°01'2714.9
2017-Feb-15 08:33N 47°26' W 005°16'1615.5
2017-Feb-15 07:30N 47°41' W 005°24'6613.3
2017-Feb-15 02:33N 48°44' W 005°52'3014.8
2017-Feb-15 00:32N 49°03' W 005°17'4915.5
2017-Feb-14 21:22N 49°28' W 004°12'3013.5
2017-Feb-14 19:10N 49°43' W 003°32'913.9
2017-Feb-14 18:33N 49°47' W 003°21'1815.1
2017-Feb-14 17:21N 49°57' W 002°57'1516.9
2017-Feb-14 16:30N 50°01' W 002°35'9115.3
2017-Feb-14 10:31N 50°27' W 000°18'3115.7
2017-Feb-14 08:33N 50°36' E 000°28'1817.8
2017-Feb-14 07:33N 50°44' E 000°53'1818.1
2017-Feb-14 06:33N 50°55' E 001°17'1717.0
2017-Feb-14 05:33N 51°06' E 001°36'1515.3
2017-Feb-14 04:33N 51°18' E 001°51'1514.8
2017-Feb-14 03:33N 51°30' E 002°06'1515.1
2017-Feb-14 02:32N 51°41' E 002°22'3115.6
2017-Feb-14 00:33N 52°02' E 003°00'1817.8
2017-Feb-13 23:33N 52°04' E 003°29'1616.2
2017-Feb-13 22:33N 52°02' E 003°55'1514.9
2017-Feb-13 21:33N 51°54' E 004°16'6 5.8
2017-Feb-13 20:33N 51°53' E 004°25'0 0.0
2017-Feb-13 19:33N 51°53' E 004°25'0 0.0
2017-Feb-13 18:33N 51°53' E 004°25'0 0.0
2017-Feb-13 17:33N 51°53' E 004°25'0 0.0
2017-Feb-13 16:33N 51°53' E 004°25'0 0.0
2017-Feb-13 15:33N 51°53' E 004°25'0 0.0
2017-Feb-13 14:33N 51°53' E 004°25'0 0.0
2017-Feb-13 13:33N 51°53' E 004°25'0 0.0
2017-Feb-13 12:33N 51°53' E 004°25'0 0.3
2017-Feb-13 11:31N 51°53' E 004°25'0 0.0
2017-Feb-13 10:32N 51°53' E 004°25'0 0.0
2017-Feb-13 09:32N 51°53' E 004°25'0 0.0
2017-Feb-13 08:32N 51°53' E 004°25'0 0.0
2017-Feb-13 07:31N 51°53' E 004°25'0 0.0
2017-Feb-13 06:32N 51°53' E 004°25'0 0.0
2017-Feb-13 05:32N 51°53' E 004°25'2 1.6
2017-Feb-13 04:33N 51°54' E 004°26'1 0.7
2017-Feb-13 03:33N 51°53' E 004°26'0 0.0
2017-Feb-13 02:33N 51°53' E 004°26'0 0.0
2017-Feb-13 01:33N 51°53' E 004°26'0 0.0
2017-Feb-13 00:31N 51°53' E 004°26'0 0.0
2017-Feb-12 23:33N 51°53' E 004°26'0 0.0
2017-Feb-12 22:33N 51°53' E 004°26'0 0.0
2017-Feb-12 21:33N 51°53' E 004°26'0 0.0
2017-Feb-12 20:33N 51°53' E 004°26'0 0.0
2017-Feb-12 19:32N 51°53' E 004°26'5 5.3
2017-Feb-12 18:34N 51°54' E 004°18'9 8.8
2017-Feb-12 17:33N 51°58' E 004°05'1 1.1
2017-Feb-12 16:33N 51°57' E 004°04'0 0.0
2017-Feb-12 15:33N 51°57' E 004°04'0 0.0
2017-Feb-12 14:32N 51°57' E 004°04'0 0.0
2017-Feb-12 13:33N 51°57' E 004°04'0 0.0
2017-Feb-12 12:31N 51°57' E 004°04'0 0.0
2017-Feb-12 11:33N 51°57' E 004°04'0 0.0
2017-Feb-12 10:31N 51°57' E 004°04'2 2.4
2017-Feb-12 09:33N 51°58' E 004°01'2 1.8
2017-Feb-12 08:31N 51°57' E 003°59'0 0.0
2017-Feb-12 07:31N 51°57' E 003°59'0 0.0
2017-Feb-12 06:31N 51°57' E 003°59'0 0.0
2017-Feb-12 05:31N 51°57' E 003°59'0 0.0
2017-Feb-12 04:32N 51°57' E 003°59'0 0.0
2017-Feb-12 03:33N 51°57' E 003°59'0 0.0
2017-Feb-12 02:31N 51°57' E 003°59'0 0.0
2017-Feb-12 01:33N 51°57' E 003°59'0 0.0
2017-Feb-12 00:33N 51°57' E 003°59'0 0.0
2017-Feb-11 23:33N 51°57' E 003°59'0 0.0
2017-Feb-11 22:33N 51°57' E 003°59'0 0.0
2017-Feb-11 21:33N 51°57' E 003°59'0 0.0
2017-Feb-11 20:33N 51°57' E 003°59'0 0.0
2017-Feb-11 19:32N 51°57' E 003°59'0 0.0
2017-Feb-11 18:32N 51°57' E 003°59'0 0.0
2017-Feb-11 17:33N 51°57' E 003°59'3 3.4
2017-Feb-11 16:34N 51°59' E 004°04'  
Track history (hours):
 
Tides and Currents Weather Stations Pressure Air Temp Water Temp Dewpoint Dewpoint Depression Visibility Wind Speed Wind Dir Waves Ship Positions

Euro Snow

Last reported at 2017-Feb-21 15:33 UTC. Time now 2017-Feb-21 19:04 UTC.
Position N 51°31' E 002°18'.

Length 133 m; draft 6.7 m.

Type: Ship (hazmat cat A). MMSI: 235613000.

Date/timePositionNaut miles runAvg speedWind from/ knotsBaromVisibWave heightAir tempDewpointWater temp
2017-Feb-21 15:33N 51°31' E 002°18'1616.3
2017-Feb-21 14:34N 51°17' E 002°06'1616.1
2017-Feb-21 13:34N 51°06' E 001°47'1616.2
2017-Feb-21 12:34N 50°54' E 001°30'3415.7
2017-Feb-21 10:22N 50°30' E 000°51'1416.7
2017-Feb-21 09:32N 50°26' E 000°30'1616.6
2017-Feb-21 08:34N 50°21' E 000°06'5817.3
2017-Feb-21 05:13N 50°06' W 001°21'1218.3
2017-Feb-21 04:33N 50°01' W 001°38'4518.5
2017-Feb-21 02:08N 49°50' W 002°46'1517.9
2017-Feb-21 01:16N 49°43' W 003°07'1317.7
2017-Feb-21 00:34N 49°37' W 003°24'1817.5
2017-Feb-20 23:34N 49°28' W 003°47'7217.3
2017-Feb-20 19:23N 48°51' W 005°22'7014.5
2017-Feb-20 14:33N 47°41' W 005°15'  
2017-Feb-15 12:30N 46°36' W 004°47'2612.4
2017-Feb-15 10:23N 47°01' W 005°01'2714.9
2017-Feb-15 08:33N 47°26' W 005°16'1615.5
2017-Feb-15 07:30N 47°41' W 005°24'6613.3
2017-Feb-15 02:33N 48°44' W 005°52'3014.8
2017-Feb-15 00:32N 49°03' W 005°17'4915.5
2017-Feb-14 21:22N 49°28' W 004°12'3013.5
2017-Feb-14 19:10N 49°43' W 003°32'913.9
2017-Feb-14 18:33N 49°47' W 003°21'1815.1
2017-Feb-14 17:21N 49°57' W 002°57'1516.9
2017-Feb-14 16:30N 50°01' W 002°35'9115.3
2017-Feb-14 10:31N 50°27' W 000°18'3115.7
2017-Feb-14 08:33N 50°36' E 000°28'1817.8
2017-Feb-14 07:33N 50°44' E 000°53'1818.1
2017-Feb-14 06:33N 50°55' E 001°17'1717.0
2017-Feb-14 05:33N 51°06' E 001°36'1515.3
2017-Feb-14 04:33N 51°18' E 001°51'1514.8
2017-Feb-14 03:33N 51°30' E 002°06'1515.1
2017-Feb-14 02:32N 51°41' E 002°22'3115.6
2017-Feb-14 00:33N 52°02' E 003°00'1817.8
2017-Feb-13 23:33N 52°04' E 003°29'1616.2
2017-Feb-13 22:33N 52°02' E 003°55'1514.9
2017-Feb-13 21:33N 51°54' E 004°16'6 5.8
2017-Feb-13 20:33N 51°53' E 004°25'0 0.0
2017-Feb-13 19:33N 51°53' E 004°25'0 0.0
2017-Feb-13 18:33N 51°53' E 004°25'0 0.0
2017-Feb-13 17:33N 51°53' E 004°25'0 0.0
2017-Feb-13 16:33N 51°53' E 004°25'0 0.0
2017-Feb-13 15:33N 51°53' E 004°25'0 0.0
2017-Feb-13 14:33N 51°53' E 004°25'0 0.0
2017-Feb-13 13:33N 51°53' E 004°25'0 0.0
2017-Feb-13 12:33N 51°53' E 004°25'0 0.3
2017-Feb-13 11:31N 51°53' E 004°25'0 0.0
2017-Feb-13 10:32N 51°53' E 004°25'0 0.0
2017-Feb-13 09:32N 51°53' E 004°25'0 0.0
2017-Feb-13 08:32N 51°53' E 004°25'0 0.0
2017-Feb-13 07:31N 51°53' E 004°25'0 0.0
2017-Feb-13 06:32N 51°53' E 004°25'0 0.0
2017-Feb-13 05:32N 51°53' E 004°25'2 1.6
2017-Feb-13 04:33N 51°54' E 004°26'1 0.7
2017-Feb-13 03:33N 51°53' E 004°26'0 0.0
2017-Feb-13 02:33N 51°53' E 004°26'0 0.0
2017-Feb-13 01:33N 51°53' E 004°26'0 0.0
2017-Feb-13 00:31N 51°53' E 004°26'0 0.0
2017-Feb-12 23:33N 51°53' E 004°26'0 0.0
2017-Feb-12 22:33N 51°53' E 004°26'0 0.0
2017-Feb-12 21:33N 51°53' E 004°26'0 0.0
2017-Feb-12 20:33N 51°53' E 004°26'0 0.0
2017-Feb-12 19:32N 51°53' E 004°26'5 5.3
2017-Feb-12 18:34N 51°54' E 004°18'9 8.8
2017-Feb-12 17:33N 51°58' E 004°05'1 1.1
2017-Feb-12 16:33N 51°57' E 004°04'0 0.0
2017-Feb-12 15:33N 51°57' E 004°04'0 0.0
2017-Feb-12 14:32N 51°57' E 004°04'0 0.0
2017-Feb-12 13:33N 51°57' E 004°04'0 0.0
2017-Feb-12 12:31N 51°57' E 004°04'0 0.0
2017-Feb-12 11:33N 51°57' E 004°04'0 0.0
2017-Feb-12 10:31N 51°57' E 004°04'2 2.4
2017-Feb-12 09:33N 51°58' E 004°01'2 1.8
2017-Feb-12 08:31N 51°57' E 003°59'0 0.0
2017-Feb-12 07:31N 51°57' E 003°59'0 0.0
2017-Feb-12 06:31N 51°57' E 003°59'0 0.0
2017-Feb-12 05:31N 51°57' E 003°59'0 0.0
2017-Feb-12 04:32N 51°57' E 003°59'0 0.0
2017-Feb-12 03:33N 51°57' E 003°59'0 0.0
2017-Feb-12 02:31N 51°57' E 003°59'0 0.0
2017-Feb-12 01:33N 51°57' E 003°59'0 0.0
2017-Feb-12 00:33N 51°57' E 003°59'0 0.0
2017-Feb-11 23:33N 51°57' E 003°59'0 0.0
2017-Feb-11 22:33N 51°57' E 003°59'0 0.0
2017-Feb-11 21:33N 51°57' E 003°59'0 0.0
2017-Feb-11 20:33N 51°57' E 003°59'0 0.0
2017-Feb-11 19:32N 51°57' E 003°59'0 0.0
2017-Feb-11 18:32N 51°57' E 003°59'0 0.0
2017-Feb-11 17:33N 51°57' E 003°59'3 3.4
2017-Feb-11 16:34N 51°59' E 004°04'  

Dump ship's entire track history